Time;durP1;ratioP1;P1;durP2;ratioP2;P2;SDS_P1;SDS_P2;PMS_P1;PMS_P2;Temp;Humidity;BMP_temperature;BMP_pressure;BME280_temperature;BME280_humidity;BME280_pressure;Samples;Min_cycle;Max_cycle;Signal;HPM_P1;HPM_P2
2021/06/09 00:01:00;;;;;;;6.63;6.13;;;;;;;13.21;66.56;100111.97;260423;1107;103072;-70
2021/06/09 00:06:06;;;;;;;8.03;7.25;;;;;;;13.18;66.38;100108.97;260987;1106;103071;-70
2021/06/09 00:11:11;;;;;;;7.60;7.00;;;;;;;13.15;66.63;100103.05;260532;1101;103036;-70
2021/06/09 00:16:20;;;;;;;7.23;6.25;;;;;;;12.97;66.88;100100.57;260243;1107;103161;-70
2021/06/09 00:21:26;;;;;;;6.05;5.53;;;;;;;12.79;67.12;100088.23;260693;1106;103108;-70
2021/06/09 00:26:30;;;;;;;7.98;7.25;;;;;;;12.77;67.43;100084.17;260724;1107;102942;-71
2021/06/09 00:31:35;;;;;;;8.63;7.80;;;;;;;12.82;67.58;100094.97;260330;1107;102960;-71
2021/06/09 00:36:40;;;;;;;10.50;9.60;;;;;;;12.82;68.03;100081.59;261101;1107;102041;-71
2021/06/09 00:41:45;;;;;;;7.80;7.10;;;;;;;12.82;67.94;100073.56;261416;1107;103006;-72
2021/06/09 00:46:51;;;;;;;9.38;8.53;;;;;;;12.75;67.96;100088.95;260688;1107;103022;-72
2021/06/09 00:51:56;;;;;;;10.08;7.65;;;;;;;12.73;68.06;100091.86;260409;1107;102982;-72
2021/06/09 00:57:02;;;;;;;9.90;9.03;;;;;;;12.78;68.17;100093.82;261177;1107;103039;-71
2021/06/09 01:02:08;;;;;;;10.65;8.70;;;;;;;12.61;67.93;100099.11;261071;1107;102982;-71
2021/06/09 01:07:16;;;;;;;9.10;7.58;;;;;;;12.49;68.35;100101.04;262447;1106;102965;-72
2021/06/09 01:12:23;;;;;;;10.35;8.98;;;;;;;12.54;68.30;100102.97;261577;1106;102962;-71
2021/06/09 01:17:28;;;;;;;9.63;8.68;;;;;;;12.46;68.39;100104.19;260142;1107;103039;-70
2021/06/09 01:22:33;;;;;;;6.48;5.98;;;;;;;12.39;68.31;100104.32;262687;1107;102598;-70
2021/06/09 01:27:39;;;;;;;6.80;6.20;;;;;;;12.23;68.40;100110.39;261408;1107;102960;-69
2021/06/09 01:32:45;;;;;;;7.43;6.73;;;;;;;12.06;68.63;100096.96;261105;1107;103097;-68
2021/06/09 01:37:51;;;;;;;9.30;8.33;;;;;;;12.03;68.75;100112.65;260852;1103;102986;-69
2021/06/09 01:42:58;;;;;;;7.73;7.05;;;;;;;12.02;68.93;100113.70;261032;1107;102940;-69
2021/06/09 01:48:03;;;;;;;10.80;9.90;;;;;;;11.99;69.38;100117.65;261095;1107;103094;-72
2021/06/09 01:53:09;;;;;;;9.18;6.68;;;;;;;11.87;69.16;100106.19;260700;1107;103024;-69
2021/06/09 01:58:15;;;;;;;7.33;6.73;;;;;;;11.70;69.32;100103.36;260014;1107;103018;-71
2021/06/09 02:03:21;;;;;;;10.40;7.28;;;;;;;11.56;69.07;100123.34;260238;1107;102994;-69
2021/06/09 02:08:26;;;;;;;10.00;8.97;;;;;;;11.43;69.40;100112.88;260865;1107;103726;-70
2021/06/09 02:13:31;;;;;;;8.48;7.68;;;;;;;11.40;70.03;100113.34;260385;1107;103061;-69
2021/06/09 02:18:39;;;;;;;9.45;8.65;;;;;;;11.36;69.85;100107.64;260168;1107;103049;-69
2021/06/09 02:23:46;;;;;;;13.33;9.60;;;;;;;11.32;70.18;100100.32;260559;1107;103011;-71
2021/06/09 02:28:51;;;;;;;9.40;8.60;;;;;;;11.33;70.66;100110.77;260309;1107;102997;-73
2021/06/09 02:33:57;;;;;;;10.88;9.73;;;;;;;11.41;71.08;100120.30;260510;1103;103104;-72
2021/06/09 02:39:04;;;;;;;11.08;8.80;;;;;;;11.46;71.16;100118.56;260198;1107;103045;-72
2021/06/09 02:44:08;;;;;;;;;;;;;;;11.56;71.04;100112.66;260097;1107;103014;-72
2021/06/09 02:49:16;;;;;;;8.98;8.13;;;;;;;11.50;71.00;100113.59;260734;1106;103034;-68
2021/06/09 02:54:41;;;;;;;10.68;7.30;;;;;;;11.40;70.63;100111.48;261138;1107;103040;-74
2021/06/09 02:59:56;;;;;;;8.90;8.10;;;;;;;11.30;70.80;100107.77;261064;1107;102937;-72
2021/06/09 03:05:22;;;;;;;10.23;9.20;;;;;;;11.32;70.65;100101.13;260561;1107;102930;-75
2021/06/09 03:10:39;;;;;;;11.93;9.80;;;;;;;11.48;71.11;100104.98;261999;1107;103065;-71
2021/06/09 03:15:53;;;;;;;;;;;;;;;11.52;71.08;100102.67;262593;1107;101507;-77
2021/06/09 03:21:02;;;;;;;9.53;7.63;;;;;;;11.62;71.39;100103.70;261853;1106;103037;-75
2021/06/09 03:26:38;;;;;;;10.35;9.45;;;;;;;11.73;71.22;100107.42;262604;1107;102785;-74
2021/06/09 03:31:47;;;;;;;11.40;10.40;;;;;;;11.93;71.92;100107.89;262332;1107;102960;-72
2021/06/09 03:36:57;;;;;;;12.35;11.05;;;;;;;12.21;71.96;100101.02;262263;1107;103078;-72
2021/06/09 03:42:07;;;;;;;12.67;11.47;;;;;;;12.61;71.54;100099.11;260439;1107;103010;-69
2021/06/09 03:47:13;;;;;;;11.53;9.73;;;;;;;12.90;70.58;100101.77;260736;1107;102969;-72
2021/06/09 03:52:19;;;;;;;12.60;10.08;;;;;;;13.13;70.95;100102.47;260822;1106;103061;-73
2021/06/09 03:57:24;;;;;;;8.93;8.03;;;;;;;13.31;70.65;100098.77;260659;1107;103040;-72
2021/06/09 04:02:31;;;;;;;10.03;9.03;;;;;;;13.36;71.03;100108.75;260092;1103;103099;-71
2021/06/09 04:07:37;;;;;;;;;;;;;;;13.60;70.77;100110.19;260583;1107;103123;-73
2021/06/09 04:12:42;;;;;;;12.03;10.80;;;;;;;14.01;70.62;100113.45;260954;1103;103017;-72
2021/06/09 04:17:49;;;;;;;16.25;12.90;;;;;;;14.70;70.30;100116.42;260734;1107;102990;-70
2021/06/09 04:22:54;;;;;;;23.70;10.53;;;;;;;15.19;70.38;100111.00;260372;1107;103107;-70
2021/06/09 04:28:01;;;;;;;12.23;11.03;;;;;;;16.71;69.19;100109.20;260688;1107;103017;-73
2021/06/09 04:33:10;;;;;;;11.45;10.35;;;;;;;18.42;66.45;100109.28;260939;1107;102936;-70
2021/06/09 04:38:18;;;;;;;13.18;11.88;;;;;;;19.24;65.15;100112.31;261073;1107;102987;-70
2021/06/09 04:43:24;;;;;;;13.15;11.93;;;;;;;20.63;63.30;100116.81;260451;1107;103094;-71
2021/06/09 04:48:28;;;;;;;13.13;11.80;;;;;;;21.43;61.90;100111.25;260214;1107;103086;-70
2021/06/09 04:53:33;;;;;;;12.80;11.45;;;;;;;20.85;61.26;100108.89;261410;1107;103526;-69
2021/06/09 04:58:38;;;;;;;18.33;13.03;;;;;;;19.97;61.41;100107.57;261698;1102;102841;-76
2021/06/09 05:03:43;;;;;;;16.85;13.10;;;;;;;19.32;61.48;100115.20;261455;1102;103030;-68
2021/06/09 05:08:48;;;;;;;13.23;12.00;;;;;;;18.95;62.16;100109.56;262440;1107;101819;-70
2021/06/09 05:13:55;;;;;;;11.15;10.25;;;;;;;21.15;60.29;100104.91;260536;1107;102943;-72
2021/06/09 05:19:03;;;;;;;13.05;11.35;;;;;;;23.24;58.03;100107.00;262568;1107;101328;-74
2021/06/09 05:24:09;;;;;;;10.90;9.95;;;;;;;24.15;55.96;100110.08;262601;1107;101371;-75
2021/06/09 05:29:16;;;;;;;14.03;11.83;;;;;;;23.29;55.54;100126.72;261204;1103;103107;-72
2021/06/09 05:34:23;;;;;;;15.53;10.95;;;;;;;23.14;54.73;100125.19;261682;1107;102965;-75
2021/06/09 05:39:29;;;;;;;10.60;9.70;;;;;;;22.24;54.62;100117.13;260996;1107;102965;-77
2021/06/09 05:44:34;;;;;;;11.34;10.04;;;;;;;21.93;54.56;100119.59;261309;1107;103115;-71
2021/06/09 05:49:39;;;;;;;10.48;9.38;;;;;;;25.74;51.42;100121.20;260642;1107;102985;-68
2021/06/09 05:54:45;;;;;;;9.90;9.00;;;;;;;28.79;47.63;100132.24;259878;1107;103082;-71
2021/06/09 05:59:50;;;;;;;10.35;9.43;;;;;;;29.99;44.69;100135.95;260283;1107;103037;-78
2021/06/09 06:04:58;;;;;;;11.55;9.78;;;;;;;29.59;43.53;100130.61;260524;1107;103055;-73
2021/06/09 06:10:06;;;;;;;14.18;7.45;;;;;;;31.41;41.76;100136.38;260130;1103;103493;-73
2021/06/09 06:15:13;;;;;;;8.53;7.33;;;;;;;33.67;38.94;100149.16;260130;1107;103340;-73
2021/06/09 06:20:22;;;;;;;7.20;6.20;;;;;;;34.92;37.52;100139.83;260894;1107;102971;-73
2021/06/09 06:25:28;;;;;;;8.85;6.60;;;;;;;35.66;35.04;100155.12;260458;1107;102992;-73
2021/06/09 06:30:33;;;;;;;5.83;5.23;;;;;;;34.20;33.95;100159.14;260684;1103;103060;-73
2021/06/09 06:35:43;;;;;;;4.80;4.40;;;;;;;31.14;34.85;100154.74;260661;1101;102995;-71
2021/06/09 06:40:49;;;;;;;5.90;5.33;;;;;;;29.02;36.91;100154.52;261145;1107;103059;-74
2021/06/09 06:45:55;;;;;;;6.45;5.83;;;;;;;30.48;36.96;100153.66;260657;1107;103091;-74
2021/06/09 06:51:01;;;;;;;6.03;5.50;;;;;;;32.21;35.08;100151.16;261775;1103;103091;-76
2021/06/09 06:56:08;;;;;;;5.18;4.73;;;;;;;33.02;34.55;100149.59;261533;1107;102986;-73
2021/06/09 07:01:14;;;;;;;4.30;4.00;;;;;;;33.64;33.40;100166.50;260936;1107;102963;-72
2021/06/09 07:06:19;;;;;;;6.45;5.20;;;;;;;34.30;32.38;100155.66;260396;1101;103062;-72
2021/06/09 07:11:25;;;;;;;5.50;4.85;;;;;;;34.06;31.35;100163.37;262347;1107;103116;-72
2021/06/09 07:16:32;;;;;;;4.65;4.35;;;;;;;34.38;31.23;100160.88;261056;1107;103075;-71
2021/06/09 07:21:39;;;;;;;3.85;3.55;;;;;;;34.23;31.10;100161.14;262405;1106;102861;-74
2021/06/09 07:26:46;;;;;;;3.85;3.45;;;;;;;33.70;31.24;100162.22;262493;1107;102916;-74
2021/06/09 07:31:52;;;;;;;5.38;3.55;;;;;;;33.08;31.52;100159.14;262206;1107;101479;-73
2021/06/09 07:37:06;;;;;;;4.43;4.03;;;;;;;32.44;31.44;100144.45;262281;1107;103821;-71
2021/06/09 07:42:14;;;;;;;7.20;3.93;;;;;;;31.63;31.45;100140.31;261519;1107;103011;-71
2021/06/09 07:47:22;;;;;;;7.65;4.38;;;;;;;31.25;33.73;100143.92;261414;1106;103043;-71
2021/06/09 07:52:29;;;;;;;4.13;3.83;;;;;;;30.82;33.38;100143.03;260574;1107;103080;-70
2021/06/09 07:57:36;;;;;;;4.63;4.33;;;;;;;30.32;33.17;100147.38;261602;1107;102770;-71
2021/06/09 08:02:44;;;;;;;4.70;4.30;;;;;;;29.98;34.30;100143.38;260305;1103;103167;-73
2021/06/09 08:07:49;;;;;;;5.23;4.75;;;;;;;29.75;35.21;100142.40;259994;1107;103088;-73
2021/06/09 08:13:14;;;;;;;4.90;4.50;;;;;;;29.54;35.22;100144.59;260420;1107;102995;-74
2021/06/09 08:18:20;;;;;;;3.93;3.73;;;;;;;29.13;34.71;100146.58;260021;1107;103249;-73
2021/06/09 08:23:25;;;;;;;4.90;4.10;;;;;;;28.88;35.49;100154.09;260791;1107;103093;-73
2021/06/09 08:28:35;;;;;;;5.13;4.73;;;;;;;28.90;36.40;100151.80;260197;1107;102963;-74
2021/06/09 08:33:41;;;;;;;6.93;5.18;;;;;;;28.94;36.06;100149.97;260778;1107;102963;-73
2021/06/09 08:38:52;;;;;;;5.50;5.00;;;;;;;28.89;36.20;100144.72;260250;1107;102950;-74
2021/06/09 08:44:00;;;;;;;6.27;5.67;;;;;;;28.81;36.47;100151.13;260908;1102;102971;-73
2021/06/09 08:49:06;;;;;;;5.60;5.10;;;;;;;28.76;36.73;100151.34;260382;1107;103126;-74
2021/06/09 08:54:10;;;;;;;5.38;5.00;;;;;;;28.67;36.85;100145.20;259838;1107;103091;-73
2021/06/09 08:59:15;;;;;;;6.00;5.55;;;;;;;28.48;36.67;100138.36;261323;1107;102980;-72
2021/06/09 09:04:20;;;;;;;6.08;5.48;;;;;;;28.27;36.62;100136.90;260161;1107;102997;-72
2021/06/09 09:09:26;;;;;;;6.48;5.65;;;;;;;28.27;36.43;100145.13;262140;1107;102793;-72
2021/06/09 09:14:32;;;;;;;9.38;5.08;;;;;;;28.32;37.14;100145.70;261631;1107;103152;-72
2021/06/09 09:19:41;;;;;;;6.40;5.38;;;;;;;28.13;37.29;100148.16;261378;1107;102973;-76
2021/06/09 09:24:48;;;;;;;6.70;5.20;;;;;;;28.23;37.29;100149.69;260960;1102;103030;-71
2021/06/09 09:30:07;;;;;;;5.70;5.28;;;;;;;28.44;37.48;100147.61;262679;1107;101500;-74
2021/06/09 09:35:13;;;;;;;5.63;4.95;;;;;;;28.00;36.58;100143.83;261659;1107;102969;-74
2021/06/09 09:40:18;;;;;;;6.85;5.98;;;;;;;27.36;37.33;100150.61;262563;1107;101476;-73
2021/06/09 09:45:30;;;;;;;11.75;5.68;;;;;;;27.53;38.32;100141.41;261896;1107;102940;-72
2021/06/09 09:50:35;;;;;;;4.80;4.40;;;;;;;27.22;38.55;100149.29;261689;1107;102939;-72
2021/06/09 09:56:00;;;;;;;;;;;;;;;27.12;38.43;100142.31;260264;1107;103016;-74
2021/06/09 10:01:15;;;;;;;5.33;4.45;;;;;;;27.36;38.43;100144.34;261081;1107;103068;-74
2021/06/09 10:06:45;;;;;;;6.00;5.33;;;;;;;27.74;38.08;100144.14;261539;1107;102950;-77
2021/06/09 10:11:58;;;;;;;6.25;5.38;;;;;;;28.19;37.79;100146.80;261304;1107;103017;-76
2021/06/09 10:17:04;;;;;;;8.10;5.03;;;;;;;27.97;37.38;100142.57;260618;1107;103065;-74
2021/06/09 10:22:16;;;;;;;5.18;4.70;;;;;;;28.02;37.25;100141.55;260183;1107;103016;-75
2021/06/09 10:27:47;;;;;;;5.97;5.43;;;;;;;28.06;37.06;100150.69;260519;1107;103064;-75
2021/06/09 10:33:01;;;;;;;6.00;5.50;;;;;;;27.92;37.07;100141.98;260524;1107;103064;-75
2021/06/09 10:38:06;;;;;;;5.85;5.35;;;;;;;27.57;37.39;100145.08;260130;1107;103311;-74
2021/06/09 10:43:13;;;;;;;5.00;4.47;;;;;;;27.45;37.37;100139.59;260124;1107;103015;-75
2021/06/09 10:48:17;;;;;;;5.65;5.20;;;;;;;26.51;37.24;100136.47;260123;1107;103046;-77
2021/06/09 10:53:23;;;;;;;5.98;4.55;;;;;;;26.40;38.34;100138.77;260640;1107;103011;-74
2021/06/09 10:58:28;;;;;;;5.63;5.08;;;;;;;26.35;38.65;100143.62;260788;1103;103596;-73
2021/06/09 11:03:36;;;;;;;6.13;5.63;;;;;;;26.42;39.10;100138.44;260792;1107;102962;-73
2021/06/09 11:08:40;;;;;;;6.28;5.78;;;;;;;26.42;38.61;100141.17;260274;1107;103222;-75
2021/06/09 11:13:47;;;;;;;4.88;4.25;;;;;;;26.75;38.64;100125.67;260481;1106;104782;-75
2021/06/09 11:19:00;;;;;;;6.80;6.20;;;;;;;26.49;38.79;100125.05;260321;1107;102986;-73
2021/06/09 11:24:21;;;;;;;6.45;5.95;;;;;;;26.28;39.29;100127.73;261883;1107;103734;-73
2021/06/09 11:29:29;;;;;;;;;;;;;;;26.36;38.58;100115.95;262650;1107;101211;-73
2021/06/09 11:34:57;;;;;;;5.63;5.13;;;;;;;26.33;39.50;100122.08;262495;1101;101845;-73
2021/06/09 11:40:06;;;;;;;5.78;5.20;;;;;;;26.09;39.10;100117.20;261820;1106;102056;-73
2021/06/09 11:45:24;;;;;;;5.55;5.15;;;;;;;25.88;39.40;100115.53;262592;1107;101471;-73
2021/06/09 11:50:30;;;;;;;5.93;4.63;;;;;;;26.39;38.75;100103.56;262631;1107;101545;-76
2021/06/09 11:55:34;;;;;;;6.53;4.50;;;;;;;26.92;38.62;100104.77;262141;1107;101281;-75
2021/06/09 12:01:00;;;;;;;5.08;4.33;;;;;;;27.03;38.32;100097.80;260482;1107;103011;-73
2021/06/09 12:06:19;;;;;;;4.83;3.90;;;;;;;26.58;37.21;100092.20;261024;1107;103033;-74
2021/06/09 12:11:24;;;;;;;15.20;5.05;;;;;;;26.74;37.63;100099.45;260036;1107;103046;-72
2021/06/09 12:16:28;;;;;;;;;;;;;;;26.66;37.72;100092.11;260634;1107;103034;-74
2021/06/09 12:21:34;;;;;;;5.15;3.83;;;;;;;26.13;36.99;100084.56;261822;1107;103039;-74
2021/06/09 12:26:39;;;;;;;3.88;3.68;;;;;;;26.42;37.51;100081.84;260395;1107;103033;-73
2021/06/09 12:31:43;;;;;;;2.98;2.78;;;;;;;26.75;37.59;100078.38;260531;1107;103045;-74
2021/06/09 12:36:56;;;;;;;6.78;3.65;;;;;;;26.96;36.85;100068.24;260819;1107;103017;-74
2021/06/09 12:42:08;;;;;;;2.75;2.55;;;;;;;27.14;36.01;100075.16;260555;1107;103879;-73
2021/06/09 12:47:22;;;;;;;1.98;1.88;;;;;;;27.27;34.70;100067.77;260656;1102;102939;-76
2021/06/09 12:52:31;;;;;;;3.07;2.30;;;;;;;27.30;34.04;100060.83;260756;1107;103010;-74
2021/06/09 12:57:37;;;;;;;2.75;2.53;;;;;;;27.21;33.96;100057.41;260857;1107;102994;-74
2021/06/09 13:02:42;;;;;;;1.70;1.60;;;;;;;26.92;33.34;100050.86;260974;1107;102968;-75
2021/06/09 13:07:47;;;;;;;1.47;1.37;;;;;;;26.85;32.81;100034.22;260397;1107;103011;-74
2021/06/09 13:12:54;;;;;;;1.58;1.48;;;;;;;26.86;31.72;100035.82;261061;1107;103562;-74
2021/06/09 13:18:00;;;;;;;1.40;1.30;;;;;;;26.87;31.62;100037.42;261059;1107;102985;-74
2021/06/09 13:23:09;;;;;;;3.75;1.93;;;;;;;26.56;31.32;100032.38;261485;1107;102962;-76
2021/06/09 13:28:15;;;;;;;1.83;1.73;;;;;;;26.34;31.66;100029.95;261312;1107;102943;-75
2021/06/09 13:33:19;;;;;;;;;;;;;;;26.20;31.32;100026.66;261801;1107;103018;-76
2021/06/09 13:38:25;;;;;;;1.00;1.00;;;;;;;26.06;31.86;100018.70;261721;1107;102964;-78
2021/06/09 13:43:39;;;;;;;1.90;0.98;;;;;;;26.02;32.17;100020.49;262098;1107;102947;-74
2021/06/09 13:48:48;;;;;;;1.40;1.38;;;;;;;25.94;32.28;100011.24;260409;1107;105242;-75
2021/06/09 13:53:58;;;;;;;1.55;1.45;;;;;;;25.99;32.44;100010.25;262281;1107;101718;-76
2021/06/09 13:59:13;;;;;;;1.95;1.80;;;;;;;25.87;32.68;100004.69;261866;1107;102292;-75
2021/06/09 14:04:37;;;;;;;1.65;1.55;;;;;;;25.99;32.70;99997.37;261915;1107;103191;-73
2021/06/09 14:10:03;;;;;;;1.93;1.58;;;;;;;25.96;33.08;100008.18;262081;1107;103017;-72
2021/06/09 14:15:28;;;;;;;1.38;1.38;;;;;;;25.74;32.42;99993.66;261194;1107;102987;-73
2021/06/09 14:20:37;;;;;;;5.63;1.90;;;;;;;25.51;33.18;99989.58;261285;1107;102940;-73
2021/06/09 14:25:45;;;;;;;3.63;1.80;;;;;;;25.24;33.79;99988.08;260998;1107;102939;-72
2021/06/09 14:30:57;;;;;;;3.98;1.70;;;;;;;25.32;33.88;99994.64;261199;1107;103103;-76
2021/06/09 14:41:32;;;;;;;1.78;1.65;;;;;;;25.18;34.46;99994.83;261016;1106;102966;-76
2021/06/09 14:46:54;;;;;;;2.15;1.60;;;;;;;25.06;34.29;99994.72;260731;1107;103043;-74
2021/06/09 14:52:16;;;;;;;33.70;4.15;;;;;;;25.12;34.78;100001.58;260200;1107;103073;-74
2021/06/09 14:57:23;;;;;;;9.10;2.45;;;;;;;25.08;35.07;99995.17;260317;1107;102985;-73
2021/06/09 15:02:32;;;;;;;2.43;2.23;;;;;;;25.06;34.96;100000.98;260345;1107;102972;-75
2021/06/09 15:07:37;;;;;;;5.45;1.70;;;;;;;24.98;35.26;100001.80;259960;1107;102981;-73
2021/06/09 15:12:42;;;;;;;2.03;1.90;;;;;;;24.93;35.04;99999.20;261009;1101;102974;-72
2021/06/09 15:17:53;;;;;;;2.58;2.33;;;;;;;24.86;34.50;99998.88;261440;1107;103114;-74
2021/06/09 15:22:58;;;;;;;5.27;1.83;;;;;;;24.71;34.65;100008.38;260792;1107;103530;-74
2021/06/09 15:28:08;;;;;;;3.53;2.28;;;;;;;24.56;34.57;100006.13;260504;1107;103839;-74
2021/06/09 15:33:11;;;;;;;2.73;1.85;;;;;;;24.37;34.84;99998.28;261168;1107;102998;-74
2021/06/09 15:38:16;;;;;;;3.23;2.25;;;;;;;24.32;35.15;99992.98;260120;1107;103199;-74
2021/06/09 15:43:21;;;;;;;5.73;2.20;;;;;;;24.23;34.92;99994.06;262599;1107;101622;-74
2021/06/09 15:48:27;;;;;;;2.65;2.05;;;;;;;24.09;34.17;100000.47;262654;1107;101479;-74
2021/06/09 15:53:32;;;;;;;1.67;1.60;;;;;;;24.00;34.22;100005.09;262686;1107;102578;-73
2021/06/09 15:58:38;;;;;;;1.90;1.80;;;;;;;23.92;34.61;99996.89;262648;1107;101400;-73
2021/06/09 16:03:49;;;;;;;3.83;2.23;;;;;;;23.78;34.62;100007.92;260554;1107;103015;-73
2021/06/09 16:08:55;;;;;;;;;;;;;;;23.76;35.44;100000.07;261462;1107;102966;-74
2021/06/09 16:14:00;;;;;;;2.65;1.90;;;;;;;23.74;35.84;100002.30;262089;1107;102927;-73
2021/06/09 16:19:05;;;;;;;;;;;;;;;23.54;35.16;100002.89;260883;1107;104934;-73
2021/06/09 16:24:11;;;;;;;6.68;2.60;;;;;;;23.36;35.53;100003.88;261854;1107;102960;-74
2021/06/09 16:29:15;;;;;;;3.90;2.40;;;;;;;23.40;36.27;99999.42;260659;1107;103178;-71
2021/06/09 16:34:24;;;;;;;2.00;1.90;;;;;;;23.46;36.33;100001.69;260869;1107;102949;-74
2021/06/09 16:39:28;;;;;;;3.77;2.80;;;;;;;23.32;36.24;100005.61;260572;1107;103040;-73
2021/06/09 16:44:32;;;;;;;2.83;2.45;;;;;;;23.26;36.55;100004.14;260200;1107;103661;-72
2021/06/09 16:49:42;;;;;;;2.38;2.08;;;;;;;23.24;36.62;100003.64;260046;1103;102966;-71
2021/06/09 16:54:58;;;;;;;3.85;2.75;;;;;;;23.13;36.76;100001.20;260677;1107;102964;-71
2021/06/09 17:00:03;;;;;;;5.48;2.70;;;;;;;23.00;37.13;100004.80;260934;1107;103510;-71
2021/06/09 17:05:07;;;;;;;6.20;2.70;;;;;;;22.87;37.61;99997.53;260737;1107;103028;-72
2021/06/09 17:10:13;;;;;;;3.38;2.73;;;;;;;22.73;37.67;100002.19;259908;1103;103065;-71
2021/06/09 17:15:18;;;;;;;2.10;1.50;;;;;;;22.56;37.73;99999.36;261093;1107;102975;-70
2021/06/09 17:20:24;;;;;;;4.00;2.33;;;;;;;22.45;37.85;100010.45;260923;1107;105628;-73
2021/06/09 17:25:30;;;;;;;6.00;2.03;;;;;;;22.36;37.97;100001.41;260313;1107;102921;-71
2021/06/09 17:30:35;;;;;;;3.43;2.55;;;;;;;22.29;37.98;100008.39;260779;1107;103058;-70
2021/06/09 17:35:39;;;;;;;2.20;2.10;;;;;;;22.18;38.26;100000.46;261261;1107;102950;-71
2021/06/09 17:40:44;;;;;;;2.10;2.00;;;;;;;22.06;38.41;100007.52;259866;1102;102990;-71
2021/06/09 17:45:49;;;;;;;4.93;2.35;;;;;;;21.98;38.87;100010.94;262656;1107;102658;-71
2021/06/09 17:50:54;;;;;;;4.18;2.25;;;;;;;21.86;39.39;100019.58;261344;1107;103015;-71
2021/06/09 17:55:59;;;;;;;5.04;2.64;;;;;;;21.68;40.03;100021.30;262061;1107;101603;-72
2021/06/09 18:06:15;;;;;;;7.03;2.88;;;;;;;21.40;41.15;100011.54;260633;1107;102955;-71
2021/06/09 18:11:34;;;;;;;6.50;2.45;;;;;;;21.24;42.06;100010.19;260941;1107;103079;-72
2021/06/09 18:16:38;;;;;;;2.28;2.18;;;;;;;21.04;42.76;100014.84;260774;1107;102935;-71
2021/06/09 18:21:43;;;;;;;2.43;2.23;;;;;;;20.81;43.09;100000.30;261413;1107;102936;-73
2021/06/09 18:26:47;;;;;;;4.83;2.70;;;;;;;20.61;43.55;100007.95;260182;1101;102960;-71
2021/06/09 18:31:51;;;;;;;4.33;2.20;;;;;;;20.38;44.00;100010.45;260530;1103;103163;-72
2021/06/09 18:36:57;;;;;;;3.35;3.05;;;;;;;20.15;45.15;100008.59;260065;1106;103046;-73
2021/06/09 18:42:02;;;;;;;2.60;2.40;;;;;;;19.92;45.28;99998.59;259881;1101;103132;-72
2021/06/09 18:47:07;;;;;;;1.98;1.78;;;;;;;19.68;45.96;100004.03;260923;1103;103072;-71
2021/06/09 18:52:15;;;;;;;2.78;2.53;;;;;;;19.43;46.87;100005.09;260521;1107;103062;-72
2021/06/09 18:57:22;;;;;;;2.75;2.55;;;;;;;19.16;47.26;100003.73;260280;1107;102955;-72
2021/06/09 19:02:27;;;;;;;3.10;2.90;;;;;;;18.92;47.57;100005.58;260719;1107;102968;-72
2021/06/09 19:07:43;;;;;;;4.18;3.10;;;;;;;18.68;48.71;100015.47;260855;1106;102962;-69
2021/06/09 19:12:49;;;;;;;6.10;2.43;;;;;;;18.47;49.26;100012.08;260412;1107;102941;-68
2021/06/09 19:17:56;;;;;;;2.65;2.45;;;;;;;18.24;49.61;100028.95;260199;1107;103040;-70
2021/06/09 19:23:01;;;;;;;5.15;2.73;;;;;;;17.86;50.30;100033.17;260142;1107;103039;-69
2021/06/09 19:28:08;;;;;;;7.35;2.50;;;;;;;17.48;51.15;100030.81;260591;1101;103147;-67
2021/06/09 19:33:14;;;;;;;5.43;2.28;;;;;;;17.18;52.22;100034.36;260438;1107;103040;-67
2021/06/09 19:38:20;;;;;;;2.53;2.33;;;;;;;17.03;52.38;100047.84;261786;1107;102939;-69
2021/06/09 19:43:25;;;;;;;4.95;3.10;;;;;;;16.94;53.19;100049.45;261409;1107;102956;-70
2021/06/09 19:48:30;;;;;;;4.00;2.90;;;;;;;16.70;53.61;100057.24;260735;1106;103094;-68
2021/06/09 19:53:35;;;;;;;4.55;2.83;;;;;;;16.55;54.12;100056.36;261571;1107;103103;-70
2021/06/09 19:58:44;;;;;;;3.73;2.20;;;;;;;16.40;55.20;100074.10;261721;1107;102977;-70
2021/06/09 20:04:01;;;;;;;4.48;3.50;;;;;;;16.18;55.26;100073.50;262476;1107;102937;-69
2021/06/09 20:09:13;;;;;;;15.58;4.05;;;;;;;15.96;55.55;100075.53;260481;1107;102976;-72
2021/06/09 20:14:27;;;;;;;10.43;4.63;;;;;;;15.81;56.52;100087.84;260207;1103;102965;-73
2021/06/09 20:19:37;;;;;;;17.03;4.40;;;;;;;15.69;56.96;100083.72;260363;1107;102968;-75
2021/06/09 20:24:54;;;;;;;8.78;3.15;;;;;;;15.46;57.08;100087.58;260623;1107;103036;-74
2021/06/09 20:30:06;;;;;;;9.45;3.95;;;;;;;15.19;57.75;100087.64;261968;1107;102984;-72
2021/06/09 20:35:17;;;;;;;12.88;4.83;;;;;;;15.01;57.79;100098.75;261500;1107;102793;-72
2021/06/09 20:40:29;;;;;;;11.45;4.38;;;;;;;14.92;58.16;100095.73;261404;1107;103071;-69
2021/06/09 20:45:34;;;;;;;7.13;3.83;;;;;;;14.90;58.65;100105.11;261227;1107;102993;-69
2021/06/09 20:50:42;;;;;;;7.10;4.78;;;;;;;14.84;58.75;100101.56;260338;1107;103046;-72
2021/06/09 20:55:49;;;;;;;5.73;4.68;;;;;;;14.75;59.07;100106.56;260465;1103;102963;-71
2021/06/09 21:01:02;;;;;;;7.68;4.48;;;;;;;14.68;59.82;100107.81;261153;1107;103093;-72
2021/06/09 21:06:08;;;;;;;7.85;4.63;;;;;;;14.50;59.11;100098.25;260331;1107;103063;-72
2021/06/09 21:11:15;;;;;;;5.85;4.00;;;;;;;14.28;59.32;100103.61;260628;1107;102947;-71
2021/06/09 21:16:26;;;;;;;9.55;4.75;;;;;;;14.16;60.00;100102.91;260014;1107;103493;-72
2021/06/09 21:21:31;;;;;;;5.63;5.13;;;;;;;13.95;60.46;100106.39;260444;1107;102971;-71
2021/06/09 21:26:36;;;;;;;24.30;6.68;;;;;;;13.83;60.93;100101.94;260596;1107;103050;-73
2021/06/09 21:31:41;;;;;;;10.03;5.05;;;;;;;13.76;61.08;100103.17;260210;1107;103047;-72
2021/06/09 21:36:47;;;;;;;15.38;7.00;;;;;;;13.75;61.71;100110.42;261778;1107;102966;-70
2021/06/09 21:41:52;;;;;;;6.40;5.90;;;;;;;13.77;62.19;100110.96;260271;1107;102969;-68
2021/06/09 21:46:58;;;;;;;9.30;4.60;;;;;;;13.72;62.57;100102.06;261838;1107;102939;-71
2021/06/09 21:52:04;;;;;;;6.08;4.88;;;;;;;13.58;62.88;100106.94;262203;1107;101849;-70
2021/06/09 21:57:10;;;;;;;7.05;4.25;;;;;;;13.43;62.70;100106.72;262668;1107;102104;-71
2021/06/09 22:02:15;;;;;;;6.03;5.03;;;;;;;13.41;62.61;100108.83;261406;1107;103683;-69
2021/06/09 22:07:21;;;;;;;7.05;5.88;;;;;;;13.36;62.88;100112.23;260948;1107;103098;-68
2021/06/09 22:12:26;;;;;;;15.93;6.03;;;;;;;13.32;63.11;100110.28;260067;1107;102976;-71
2021/06/09 22:17:30;;;;;;;9.18;5.83;;;;;;;13.20;63.08;100118.38;260846;1107;103099;-71
2021/06/09 22:22:35;;;;;;;20.45;6.05;;;;;;;13.10;64.21;100112.84;261046;1103;103037;-71
2021/06/09 22:27:40;;;;;;;12.53;5.48;;;;;;;13.06;63.87;100114.38;260122;1107;103038;-71
2021/06/09 22:32:45;;;;;;;10.20;4.35;;;;;;;12.86;64.18;100117.48;260026;1107;103640;-70
2021/06/09 22:37:52;;;;;;;11.58;6.65;;;;;;;12.74;64.50;100114.07;260612;1106;103036;-71
2021/06/09 22:43:00;;;;;;;10.35;6.73;;;;;;;12.66;64.80;100114.45;260618;1107;103000;-74
2021/06/09 22:48:06;;;;;;;9.78;5.93;;;;;;;12.65;65.23;100110.15;260238;1107;103046;-73
2021/06/09 22:53:11;;;;;;;12.13;5.75;;;;;;;12.60;65.35;100107.38;260438;1107;103063;-71
2021/06/09 22:58:18;;;;;;;10.88;5.90;;;;;;;12.45;65.60;100115.93;260159;1107;103187;-71
2021/06/09 23:03:23;;;;;;;8.43;4.70;;;;;;;12.33;65.91;100102.59;260434;1102;104692;-71
2021/06/09 23:08:29;;;;;;;11.85;7.65;;;;;;;12.30;65.92;100108.41;260595;1107;103078;-68
2021/06/09 23:13:37;;;;;;;10.90;6.33;;;;;;;12.31;66.50;100109.22;261105;1107;102879;-71
2021/06/09 23:18:42;;;;;;;14.43;5.63;;;;;;;12.26;66.39;100106.44;260878;1101;103530;-71
2021/06/09 23:23:48;;;;;;;23.33;6.68;;;;;;;12.22;66.77;100106.13;260702;1107;102938;-70
2021/06/09 23:28:53;;;;;;;5.18;3.83;;;;;;;12.13;66.61;100113.69;260089;1107;103321;-70